Time;durP1;ratioP1;P1;durP2;ratioP2;P2;SDS_P1;SDS_P2;PMS_P1;PMS_P2;Temp;Humidity;BMP_temperature;BMP_pressure;BME280_temperature;BME280_humidity;BME280_pressure;Samples;Min_cycle;Max_cycle;Signal;HPM_P1;HPM_P2
2022/04/16 00:01:17;;;;;;;14.33;12.73;;;;;;;14.11;61.56;99326.34;5113389;28;20687;-53
2022/04/16 00:03:45;;;;;;;18.87;12.07;;;;;;;14.13;61.74;99326.25;5112672;28;20198;-52
2022/04/16 00:06:12;;;;;;;17.87;12.73;;;;;;;14.11;61.60;99320.28;5113105;28;20557;-53
2022/04/16 00:08:41;;;;;;;14.80;12.03;;;;;;;14.00;61.92;99323.38;5112632;28;20194;-53
2022/04/16 00:11:08;;;;;;;15.80;12.53;;;;;;;14.03;61.94;99328.47;5112852;28;20731;-52
2022/04/16 00:13:35;;;;;;;19.90;12.43;;;;;;;13.98;62.20;99329.59;5112587;28;20429;-53
2022/04/16 00:16:02;;;;;;;16.57;13.17;;;;;;;14.03;62.25;99322.41;5112534;28;20201;-52
2022/04/16 00:18:29;;;;;;;17.47;12.60;;;;;;;13.95;62.68;99333.19;5112705;28;20214;-53
2022/04/16 00:20:57;;;;;;;17.67;12.57;;;;;;;13.68;63.62;99337.03;5112662;27;20210;-53
2022/04/16 00:23:25;;;;;;;20.20;13.50;;;;;;;13.50;64.62;99328.25;5112925;28;20190;-52
2022/04/16 00:25:56;;;;;;;19.07;14.03;;;;;;;13.45;65.54;99353.66;5112415;28;20190;-52
2022/04/16 00:28:26;;;;;;;18.70;14.10;;;;;;;13.40;65.83;99358.25;5112437;28;20187;-53
2022/04/16 00:30:53;;;;;;;16.73;13.20;;;;;;;13.34;66.16;99361.09;5112444;28;20194;-53
2022/04/16 00:33:20;;;;;;;19.00;13.27;;;;;;;13.40;65.99;99363.47;5112307;28;20201;-53
2022/04/16 00:35:47;;;;;;;16.90;13.60;;;;;;;13.44;66.02;99359.78;5112114;28;20194;-52
2022/04/16 00:38:14;;;;;;;17.93;12.93;;;;;;;13.51;66.05;99358.63;5111520;28;20589;-52
2022/04/16 00:40:41;;;;;;;16.93;13.37;;;;;;;13.40;65.97;99363.47;5111932;28;20209;-51
2022/04/16 00:43:20;;;;;;;19.73;13.50;;;;;;;13.24;65.39;99344.16;5112064;28;20190;-51
2022/04/16 00:45:47;;;;;;;21.10;14.43;;;;;;;13.30;65.32;99362.16;5112019;28;20191;-51
2022/04/16 00:48:14;;;;;;;22.13;13.03;;;;;;;13.15;65.87;99360.19;5112168;28;20195;-52
2022/04/16 00:50:42;;;;;;;16.77;12.03;;;;;;;13.02;65.18;99357.22;5112034;28;20199;-53
2022/04/16 00:53:11;;;;;;;14.13;11.70;;;;;;;12.97;65.13;99357.41;5112436;28;20221;-51
2022/04/16 00:55:38;;;;;;;18.13;12.23;;;;;;;12.96;64.96;99358.31;5111738;28;20202;-51
2022/04/16 00:58:05;;;;;;;13.77;11.47;;;;;;;12.94;65.30;99359.28;5111717;28;20222;-52
2022/04/16 01:00:34;;;;;;;20.03;11.70;;;;;;;12.97;65.29;99356.56;5111732;28;20597;-52
2022/04/16 01:03:01;;;;;;;15.93;11.33;;;;;;;12.94;65.35;99357.53;5111825;28;20205;-51
2022/04/16 01:05:29;;;;;;;12.20;10.40;;;;;;;12.81;65.10;99361.53;5111748;28;20205;-52
2022/04/16 01:07:59;;;;;;;15.03;11.00;;;;;;;12.60;65.98;99362.41;5111518;28;20202;-50
2022/04/16 01:10:28;;;;;;;14.67;10.87;;;;;;;12.56;65.86;99358.22;5111879;28;20194;-51
2022/04/16 01:12:55;;;;;;;16.37;10.60;;;;;;;12.67;66.17;99369.03;5111853;28;20295;-52
2022/04/16 01:15:23;;;;;;;14.30;11.33;;;;;;;12.76;65.83;99365.22;5111435;28;20208;-51
2022/04/16 01:17:54;;;;;;;14.30;12.90;;;;;;;12.78;65.72;99364.25;5111397;28;20674;-52
2022/04/16 01:20:22;;;;;;;15.60;12.30;;;;;;;12.80;65.80;99361.59;5111410;28;20694;-53
2022/04/16 01:22:51;;;;;;;17.03;11.87;;;;;;;12.78;66.06;99366.88;5111221;28;20238;-52
2022/04/16 01:25:19;;;;;;;16.33;11.07;;;;;;;12.76;65.76;99349.59;5111374;28;20195;-52
2022/04/16 01:27:46;;;;;;;11.40;10.20;;;;;;;12.73;65.67;99341.03;5111174;28;20718;-51
2022/04/16 01:30:15;;;;;;;14.87;10.43;;;;;;;12.75;65.69;99348.78;5111452;28;20631;-53
2022/04/16 01:32:42;;;;;;;11.93;10.73;;;;;;;12.70;66.37;99346.34;5111290;28;20602;-52
2022/04/16 01:35:09;;;;;;;13.57;10.33;;;;;;;12.72;66.24;99341.06;5111019;28;20195;-53
2022/04/16 01:37:37;;;;;;;14.90;10.60;;;;;;;12.81;65.61;99345.91;5111016;28;20202;-52
2022/04/16 01:40:08;;;;;;;12.10;10.17;;;;;;;12.78;65.40;99343.41;5111277;28;20222;-52
2022/04/16 01:42:35;;;;;;;15.33;10.10;;;;;;;12.77;65.90;99333.91;5111146;28;20679;-52
2022/04/16 01:45:03;;;;;;;16.47;10.47;;;;;;;12.85;65.68;99339.69;5111202;28;20200;-53
2022/04/16 01:47:30;;;;;;;15.20;10.83;;;;;;;12.87;64.90;99331.78;5110931;28;20223;-53
2022/04/16 01:49:57;;;;;;;11.30;10.17;;;;;;;12.76;65.26;99333.97;5110562;28;20186;-53
2022/04/16 01:52:24;;;;;;;12.37;9.77;;;;;;;12.69;65.71;99333.38;5111115;28;20190;-53
2022/04/16 01:54:52;;;;;;;11.87;9.43;;;;;;;12.56;66.19;99332.16;5111036;28;20213;-52
2022/04/16 01:57:20;;;;;;;11.63;9.47;;;;;;;12.61;66.52;99327.66;5110809;28;20195;-52
2022/04/16 01:59:48;;;;;;;11.30;8.90;;;;;;;12.70;65.59;99332.47;5110489;28;20314;-52
2022/04/16 02:02:15;;;;;;;9.60;8.57;;;;;;;12.61;66.21;99327.66;5110654;28;20217;-52
2022/04/16 02:04:42;;;;;;;10.13;9.30;;;;;;;12.56;66.28;99325.22;5110932;28;20568;-53
2022/04/16 02:07:09;;;;;;;13.20;9.70;;;;;;;12.65;66.04;99314.41;5110898;28;20203;-51
2022/04/16 02:09:36;;;;;;;12.37;9.13;;;;;;;12.65;66.11;99326.59;5110848;28;20274;-49
2022/04/16 02:12:04;;;;;;;13.13;9.37;;;;;;;12.69;65.85;99320.34;5110934;28;20586;-52
2022/04/16 02:14:32;;;;;;;9.73;8.83;;;;;;;12.66;65.81;99325.69;5110466;28;20191;-51
2022/04/16 02:17:00;;;;;;;10.27;9.27;;;;;;;12.68;65.94;99316.91;5110810;28;20208;-51
2022/04/16 02:19:28;;;;;;;12.33;8.83;;;;;;;12.64;66.08;99314.50;5110303;28;20279;-54
2022/04/16 02:21:54;;;;;;;15.30;8.97;;;;;;;12.50;66.63;99309.84;5110533;28;20204;-51
2022/04/16 02:24:21;;;;;;;9.87;8.93;;;;;;;12.44;67.27;99317.88;5110497;28;20201;-52
2022/04/16 02:26:48;;;;;;;11.97;9.20;;;;;;;12.39;68.33;99313.78;5110212;28;20226;-50
2022/04/16 02:29:15;;;;;;;13.80;9.27;;;;;;;12.44;68.31;99311.84;5110291;28;20191;-50
2022/04/16 02:31:46;;;;;;;11.10;9.80;;;;;;;12.45;67.94;99297.91;5110469;28;20194;-49
2022/04/16 02:34:13;;;;;;;13.10;9.70;;;;;;;12.38;68.51;99297.31;5110567;28;20625;-51
2022/04/16 02:36:40;;;;;;;10.73;9.43;;;;;;;12.42;68.81;99304.06;5110361;28;20194;-50
2022/04/16 02:39:09;;;;;;;19.97;10.53;;;;;;;12.48;68.50;99297.78;5110565;28;20663;-50
2022/04/16 02:41:36;;;;;;;12.70;8.93;;;;;;;12.45;68.29;99290.09;5110337;28;20194;-51
2022/04/16 02:44:03;;;;;;;11.90;9.40;;;;;;;12.30;68.61;99299.38;5110132;28;20205;-51
2022/04/16 02:49:16;;;;;;;13.50;9.57;;;;;;;12.15;70.51;99298.22;5110318;28;20584;-51
2022/04/16 02:51:43;;;;;;;10.87;9.50;;;;;;;12.13;70.42;99287.00;5110242;28;20254;-52
2022/04/16 02:54:10;;;;;;;15.57;9.77;;;;;;;12.17;71.33;99293.81;5110143;28;20639;-53
2022/04/16 02:56:38;;;;;;;10.67;9.57;;;;;;;11.97;72.43;99293.69;5110198;28;20205;-52
2022/04/16 02:59:04;;;;;;;16.57;10.33;;;;;;;11.85;73.03;99286.38;5110107;28;20225;-51
2022/04/16 03:01:31;;;;;;;19.37;10.77;;;;;;;11.80;73.18;99291.75;5111237;28;20195;-52
2022/04/16 03:03:58;;;;;;;20.53;9.93;;;;;;;11.82;72.86;99296.91;5099572;28;20288;-51
2022/04/16 03:06:27;;;;;;;12.90;9.87;;;;;;;12.00;71.50;99293.59;5092555;28;20230;-51
2022/04/16 03:08:53;;;;;;;10.43;8.77;;;;;;;11.98;70.81;99288.44;5097608;28;20626;-51
2022/04/16 03:11:20;;;;;;;9.80;8.80;;;;;;;11.88;70.17;99296.66;5113376;28;20932;-50
2022/04/16 03:13:47;;;;;;;9.67;8.77;;;;;;;11.76;69.89;99297.94;5113727;28;20222;-51
2022/04/16 03:18:58;;;;;;;9.73;8.70;;;;;;;11.74;70.60;99304.09;5130963;27;20224;-52
2022/04/16 03:21:27;;;;;;;9.70;8.73;;;;;;;11.69;70.72;99311.22;5133228;27;20736;-51
2022/04/16 03:23:54;;;;;;;13.50;8.73;;;;;;;11.74;70.47;99309.31;5134324;27;20213;-54
2022/04/16 03:26:21;;;;;;;10.40;8.30;;;;;;;11.74;70.20;99307.53;5133567;27;20328;-53
2022/04/16 03:28:48;;;;;;;10.73;8.60;;;;;;;11.54;70.27;99297.00;5133709;27;20218;-52
2022/04/16 03:31:15;;;;;;;10.93;8.82;;;;;;;11.68;69.91;99299.13;5132680;27;20464;-50
2022/04/16 03:33:42;;;;;;;10.07;8.40;;;;;;;11.59;70.26;99306.34;5133765;27;20222;-50
2022/04/16 03:36:09;;;;;;;9.27;8.13;;;;;;;11.55;70.69;99311.72;5133257;27;20672;-51
2022/04/16 03:38:37;;;;;;;10.07;8.00;;;;;;;11.43;71.19;99309.53;5121195;27;20610;-51
2022/04/16 03:41:05;;;;;;;11.20;8.30;;;;;;;11.35;72.07;99311.56;5112797;28;20306;-52
2022/04/16 03:43:32;;;;;;;10.40;8.77;;;;;;;11.38;72.33;99319.28;5112954;28;20713;-52
2022/04/16 03:45:59;;;;;;;9.50;8.53;;;;;;;11.45;71.94;99319.00;5112665;28;20631;-51
2022/04/16 03:48:26;;;;;;;9.50;7.87;;;;;;;11.47;71.65;99317.19;5109932;28;20205;-51
2022/04/16 03:50:53;;;;;;;9.87;8.40;;;;;;;11.59;70.91;99321.94;5111262;28;20199;-51
2022/04/16 03:53:20;;;;;;;11.97;8.40;;;;;;;11.72;70.38;99326.72;5112184;28;20203;-52
2022/04/16 04:01:17;;;;;;;10.37;7.43;;;;;;;11.84;70.41;99315.91;5111743;28;20533;-51
2022/04/16 04:03:46;;;;;;;10.90;7.80;;;;;;;12.03;68.96;99322.09;5111594;28;20195;-51
2022/04/16 04:06:14;;;;;;;10.80;7.87;;;;;;;12.21;68.24;99321.38;5111817;28;20197;-51
2022/04/16 04:08:41;;;;;;;11.03;8.30;;;;;;;12.33;67.48;99328.72;5112072;28;20199;-53
2022/04/16 04:11:10;;;;;;;12.93;7.13;;;;;;;12.59;65.92;99326.84;5111976;28;20593;-51
2022/04/16 04:13:37;;;;;;;8.00;7.30;;;;;;;12.66;65.08;99313.50;5110308;28;20289;-51
2022/04/16 04:16:05;;;;;;;9.10;7.53;;;;;;;12.96;64.39;99323.59;5111844;28;20568;-52
2022/04/16 04:18:32;;;;;;;9.47;8.43;;;;;;;13.05;63.47;99321.47;5111357;28;20205;-52
2022/04/16 04:20:59;;;;;;;9.70;8.77;;;;;;;13.32;63.07;99329.03;5111359;28;20725;-51
2022/04/16 04:23:26;;;;;;;10.43;7.87;;;;;;;13.89;60.54;99332.59;5111417;28;20195;-51
2022/04/16 04:25:53;;;;;;;11.13;8.53;;;;;;;14.26;58.70;99342.22;5110991;28;20259;-52
2022/04/16 04:28:22;;;;;;;13.97;8.50;;;;;;;14.69;57.50;99339.28;5111139;28;20209;-51
2022/04/16 04:30:48;;;;;;;8.43;7.70;;;;;;;15.15;55.75;99353.56;5110901;28;20205;-50
2022/04/16 04:33:15;;;;;;;22.43;8.27;;;;;;;15.36;54.42;99351.63;5111505;28;20685;-52
2022/04/16 04:35:42;;;;;;;8.87;7.77;;;;;;;15.84;52.56;99358.75;5111017;28;20205;-52
2022/04/16 04:38:09;;;;;;;8.53;7.60;;;;;;;16.38;51.29;99363.69;5111391;28;20194;-52
2022/04/16 04:40:36;;;;;;;9.37;7.63;;;;;;;16.87;49.46;99356.63;5108395;27;20226;-52
2022/04/16 04:43:03;;;;;;;9.43;7.90;;;;;;;17.51;47.68;99358.09;5111505;28;20222;-51
2022/04/16 04:45:31;;;;;;;7.93;7.17;;;;;;;17.93;46.24;99354.72;5111339;28;20228;-51
2022/04/16 04:47:58;;;;;;;8.10;7.50;;;;;;;18.10;45.85;99352.72;5111156;28;20394;-51
2022/04/16 04:50:25;;;;;;;11.43;7.70;;;;;;;18.82;43.92;99356.91;5111249;28;20579;-53
2022/04/16 04:52:52;;;;;;;10.90;8.03;;;;;;;19.50;42.64;99356.78;5111133;28;20191;-54
2022/04/16 04:55:19;;;;;;;8.63;7.72;;;;;;;20.06;41.42;99362.56;5111761;28;20666;-53
2022/04/16 04:57:46;;;;;;;9.98;7.68;;;;;;;20.57;40.29;99359.81;5111699;28;20303;-53
2022/04/16 05:00:14;;;;;;;9.32;8.23;;;;;;;20.53;40.04;99356.56;5111494;28;20222;-54
2022/04/16 05:02:44;;;;;;;9.18;8.38;;;;;;;19.66;41.22;99332.84;5111445;28;20198;-54
2022/04/16 05:05:11;;;;;;;10.80;8.85;;;;;;;19.03;42.63;99359.06;5112015;28;20260;-53
2022/04/16 05:07:38;;;;;;;14.02;8.35;;;;;;;18.74;43.49;99372.31;5111362;28;20198;-53
2022/04/16 05:10:06;;;;;;;11.63;8.93;;;;;;;18.61;43.68;99373.22;5111828;28;20247;-54
2022/04/16 05:12:33;;;;;;;10.57;8.77;;;;;;;19.01;43.28;99366.22;5111313;28;20216;-54
2022/04/16 05:15:00;;;;;;;13.82;8.90;;;;;;;19.40;42.56;99374.09;5111439;28;20198;-53
2022/04/16 05:17:27;;;;;;;8.23;7.55;;;;;;;19.69;41.78;99363.41;5111400;28;20201;-54
2022/04/16 05:19:55;;;;;;;9.02;7.10;;;;;;;19.65;41.77;99361.91;5110467;28;20210;-53
2022/04/16 05:22:22;;;;;;;7.50;6.80;;;;;;;19.40;42.09;99370.63;5111152;28;20277;-53
2022/04/16 05:24:49;;;;;;;8.02;7.03;;;;;;;19.13;42.72;99371.50;5110763;28;20204;-53
2022/04/16 05:27:16;;;;;;;10.77;7.07;;;;;;;18.97;42.96;99360.31;5111090;28;20230;-53
2022/04/16 05:30:06;;;;;;;8.10;7.40;;;;;;;18.72;43.38;99366.34;5111187;28;20191;-52
2022/04/16 05:32:36;;;;;;;12.10;8.67;;;;;;;18.38;43.86;99366.75;5110767;28;20231;-51
2022/04/16 05:35:07;;;;;;;10.33;7.70;;;;;;;18.46;44.19;99369.75;5110578;28;20198;-52
2022/04/16 05:37:34;;;;;;;8.73;7.83;;;;;;;18.88;43.38;99362.69;5110920;28;20199;-50
2022/04/16 05:40:02;;;;;;;9.35;7.72;;;;;;;18.89;43.50;99361.75;5110378;28;20226;-50
2022/04/16 05:42:29;;;;;;;9.60;8.05;;;;;;;19.34;42.23;99368.38;5110728;28;20710;-51
2022/04/16 05:45:01;;;;;;;9.30;8.05;;;;;;;19.14;42.55;99364.47;5110994;28;20675;-51
2022/04/16 05:47:28;;;;;;;9.63;7.40;;;;;;;18.77;42.84;99355.50;5110817;28;20641;-52
2022/04/16 05:49:55;;;;;;;10.23;8.57;;;;;;;18.63;43.35;99360.81;5110502;28;20201;-52
2022/04/16 05:52:24;;;;;;;12.38;7.15;;;;;;;19.03;42.64;99359.06;5110710;28;20212;-52
2022/04/16 05:54:52;;;;;;;9.18;7.45;;;;;;;19.19;42.50;99357.09;5110827;28;20578;-54
2022/04/16 05:57:19;;;;;;;17.85;7.18;;;;;;;19.98;41.27;99354.31;5110952;28;20626;-53
2022/04/16 05:59:46;;;;;;;9.18;7.65;;;;;;;20.91;39.49;99351.13;5110624;28;20230;-53
2022/04/16 06:02:13;;;;;;;8.48;7.57;;;;;;;21.77;37.88;99353.44;5113632;27;20222;-52
2022/04/16 06:04:40;;;;;;;12.90;7.45;;;;;;;22.31;36.56;99353.56;5127953;27;20197;-52
2022/04/16 06:07:07;;;;;;;11.95;6.60;;;;;;;22.39;36.49;99351.16;5110439;28;20590;-51
2022/04/16 06:09:35;;;;;;;12.38;7.35;;;;;;;22.43;36.51;99355.25;5110094;28;20222;-52
2022/04/16 06:12:03;;;;;;;7.65;6.30;;;;;;;22.90;35.79;99361.16;5110114;28;20200;-51
2022/04/16 06:14:30;;;;;;;7.07;6.35;;;;;;;23.03;35.41;99356.53;5108936;28;20218;-52
2022/04/16 06:16:57;;;;;;;9.95;6.78;;;;;;;23.42;34.64;99343.56;5111000;28;20201;-51
2022/04/16 06:19:24;;;;;;;6.70;6.28;;;;;;;23.89;33.78;99348.34;5114810;28;20700;-54
2022/04/16 06:21:51;;;;;;;7.28;6.20;;;;;;;24.22;33.48;99352.56;5108468;28;20217;-54
2022/04/16 06:24:18;;;;;;;7.20;6.57;;;;;;;24.31;33.33;99342.94;5109528;28;20198;-53
2022/04/16 06:26:47;;;;;;;10.73;7.75;;;;;;;24.24;33.37;99329.41;5113687;28;20689;-54
2022/04/16 06:29:14;;;;;;;8.30;7.32;;;;;;;24.44;33.35;99332.94;5113587;28;20677;-54
2022/04/16 06:31:41;;;;;;;9.10;7.35;;;;;;;25.05;32.61;99327.44;5109931;28;20676;-53
2022/04/16 06:34:08;;;;;;;16.02;9.48;;;;;;;25.27;32.43;99331.63;5117876;28;20207;-53
2022/04/16 06:36:35;;;;;;;8.65;7.35;;;;;;;25.53;32.19;99326.50;5115896;27;20190;-52
2022/04/16 06:39:01;;;;;;;9.27;8.13;;;;;;;26.02;31.70;99323.59;5122486;27;20205;-51
2022/04/16 06:41:28;;;;;;;8.45;7.43;;;;;;;26.57;31.09;99328.91;5123406;27;20728;-53
2022/04/16 06:43:57;;;;;;;8.40;7.60;;;;;;;26.75;30.39;99318.25;5118876;27;20195;-52
2022/04/16 06:46:23;;;;;;;7.72;6.10;;;;;;;25.94;31.49;99312.84;5124370;27;20577;-52
2022/04/16 06:48:50;;;;;;;8.32;6.10;;;;;;;24.86;32.87;99306.97;5133143;27;20650;-54
2022/04/16 06:51:17;;;;;;;13.63;9.82;;;;;;;23.71;34.40;99309.31;5119151;27;20663;-52
2022/04/16 06:53:44;;;;;;;7.30;6.72;;;;;;;23.17;35.15;99303.28;5119138;27;20874;-53
2022/04/16 06:56:11;;;;;;;8.05;7.10;;;;;;;23.59;34.94;99303.25;5113159;28;20614;-53
2022/04/16 06:58:38;;;;;;;10.70;7.72;;;;;;;24.20;34.59;99303.22;5113407;28;20212;-53
2022/04/16 07:01:06;;;;;;;7.50;6.20;;;;;;;24.91;33.38;99303.94;5112847;27;20698;-53
2022/04/16 07:03:33;;;;;;;7.00;6.15;;;;;;;25.50;32.38;99301.09;5112757;28;20712;-52
2022/04/16 07:06:00;;;;;;;6.53;5.93;;;;;;;26.07;32.01;99303.69;5112976;28;20202;-52
2022/04/16 07:08:27;;;;;;;6.45;5.20;;;;;;;26.62;31.00;99289.38;5113813;28;20206;-54
2022/04/16 07:10:54;;;;;;;10.80;5.43;;;;;;;26.34;31.24;99287.72;5113463;28;20201;-53
2022/04/16 07:13:21;;;;;;;11.65;5.40;;;;;;;25.87;31.39;99297.59;5114252;28;20204;-53
2022/04/16 07:15:48;;;;;;;6.90;5.53;;;;;;;25.90;31.53;99292.84;5113487;28;20216;-51
2022/04/16 07:18:16;;;;;;;5.10;4.80;;;;;;;26.05;31.44;99285.22;5113889;28;20198;-54
2022/04/16 07:20:43;;;;;;;6.90;6.10;;;;;;;25.33;32.12;99284.03;5113435;28;20218;-53
2022/04/16 07:23:10;;;;;;;11.48;7.82;;;;;;;24.27;33.79;99285.00;5113561;28;20198;-53
2022/04/16 07:25:37;;;;;;;7.60;5.80;;;;;;;23.98;34.30;99282.22;5113328;28;20614;-52
2022/04/16 07:28:05;;;;;;;13.43;7.60;;;;;;;23.85;34.68;99279.81;5101133;28;20251;-52
2022/04/16 07:30:32;;;;;;;6.10;5.53;;;;;;;23.78;34.92;99282.19;5092416;28;20218;-54
2022/04/16 07:32:59;;;;;;;5.97;5.28;;;;;;;23.09;35.31;99281.06;5092425;28;20610;-54
2022/04/16 07:35:27;;;;;;;8.38;6.40;;;;;;;22.78;36.08;99270.41;5098507;28;20224;-52
2022/04/16 07:37:57;;;;;;;9.00;7.57;;;;;;;22.89;35.89;99266.00;5113179;28;20198;-51
2022/04/16 07:40:25;;;;;;;7.65;6.88;;;;;;;23.03;35.82;99269.16;5113560;28;20222;-51
2022/04/16 07:42:53;;;;;;;6.72;6.05;;;;;;;23.26;35.35;99261.09;5112786;28;20195;-51
2022/04/16 07:45:21;;;;;;;9.25;8.00;;;;;;;23.26;35.24;99263.72;5112649;27;20230;-51
2022/04/16 07:47:48;;;;;;;8.80;6.30;;;;;;;23.48;35.15;99258.28;5113108;28;20282;-51
2022/04/16 07:50:15;;;;;;;7.28;6.57;;;;;;;24.03;34.38;99264.13;5113011;28;20661;-51
2022/04/16 07:52:43;;;;;;;6.53;5.90;;;;;;;24.24;33.97;99262.25;5113105;28;20199;-51
2022/04/16 07:55:10;;;;;;;5.90;5.45;;;;;;;24.55;33.75;99261.16;5113391;28;20198;-54
2022/04/16 07:57:37;;;;;;;7.13;6.20;;;;;;;24.90;33.06;99265.06;5113216;28;20194;-53
2022/04/16 08:00:06;;;;;;;6.32;5.47;;;;;;;25.29;32.34;99263.22;5112405;28;20253;-53
2022/04/16 08:02:33;;;;;;;9.55;5.80;;;;;;;25.50;32.05;99258.56;5112860;28;20194;-52
2022/04/16 08:05:00;;;;;;;12.23;6.72;;;;;;;25.17;32.71;99262.53;5112647;28;20204;-51
2022/04/16 08:07:26;;;;;;;8.63;6.68;;;;;;;25.03;32.93;99260.34;5111072;27;20201;-52
2022/04/16 08:09:55;;;;;;;8.68;5.82;;;;;;;25.55;32.00;99258.09;5111586;28;20225;-51
2022/04/16 08:12:22;;;;;;;10.10;6.10;;;;;;;25.94;31.72;99262.31;5111996;28;20210;-54
2022/04/16 08:14:49;;;;;;;10.95;6.40;;;;;;;26.34;31.42;99261.97;5111761;28;20208;-53
2022/04/16 08:17:15;;;;;;;10.43;6.47;;;;;;;26.22;31.74;99262.28;5109453;28;20674;-54
2022/04/16 08:19:42;;;;;;;12.35;6.07;;;;;;;26.02;32.50;99258.91;5108405;27;20666;-54
2022/04/16 08:22:17;;;;;;;10.85;6.30;;;;;;;25.45;32.96;99260.81;5108135;28;20622;-55
2022/04/16 08:24:53;;;;;;;16.13;6.68;;;;;;;24.88;34.10;99251.09;5108442;28;20233;-53
2022/04/16 08:27:22;;;;;;;14.25;7.05;;;;;;;24.47;34.61;99252.22;5109860;28;20232;-54
2022/04/16 08:29:49;;;;;;;14.30;5.72;;;;;;;24.42;34.77;99243.84;5109922;28;20197;-53
2022/04/16 08:32:16;;;;;;;8.40;6.45;;;;;;;24.41;34.65;99243.00;5111653;28;20568;-54
2022/04/16 08:34:42;;;;;;;10.00;5.63;;;;;;;25.03;34.03;99243.56;5111486;28;20800;-54
2022/04/16 08:37:09;;;;;;;10.52;7.10;;;;;;;25.45;33.85;99246.69;5111571;28;20674;-53
2022/04/16 08:39:36;;;;;;;10.27;6.50;;;;;;;25.66;33.22;99236.69;5111140;28;20194;-54
2022/04/16 08:42:03;;;;;;;11.98;6.82;;;;;;;25.54;33.47;99237.81;5111011;28;20220;-54
2022/04/16 08:44:33;;;;;;;9.77;6.65;;;;;;;25.86;32.12;99234.78;5110399;28;20468;-54
2022/04/16 08:47:01;;;;;;;13.02;6.45;;;;;;;25.97;31.75;99235.41;5111417;28;20701;-53
2022/04/16 08:49:29;;;;;;;11.65;6.60;;;;;;;26.56;31.24;99234.06;5111270;28;20190;-54
2022/04/16 08:51:57;;;;;;;13.93;6.70;;;;;;;27.00;30.24;99228.78;5111058;28;20198;-54
2022/04/16 08:54:25;;;;;;;14.88;6.38;;;;;;;27.47;29.80;99223.91;5111056;28;20738;-53
2022/04/16 08:56:51;;;;;;;12.88;6.95;;;;;;;27.54;29.73;99229.47;5110985;28;20198;-54
2022/04/16 08:59:18;;;;;;;12.65;7.28;;;;;;;27.69;29.38;99220.72;5110445;28;20689;-53
2022/04/16 09:01:47;;;;;;;11.43;7.35;;;;;;;28.34;28.82;99215.59;5110790;28;20215;-51
2022/04/16 09:04:21;;;;;;;9.70;6.05;;;;;;;28.70;29.12;99221.47;5110861;28;20202;-51
2022/04/16 09:06:57;;;;;;;17.27;7.25;;;;;;;28.47;29.39;99215.97;5110622;28;20189;-55
2022/04/16 09:09:24;;;;;;;9.93;6.97;;;;;;;28.67;29.10;99197.78;5110539;28;20294;-55
2022/04/16 09:11:51;;;;;;;14.90;7.10;;;;;;;29.09;28.68;99208.31;5110850;28;20573;-55
2022/04/16 09:14:19;;;;;;;12.55;7.30;;;;;;;29.05;28.43;99198.09;5110849;28;20197;-55
2022/04/16 09:16:47;;;;;;;12.90;6.88;;;;;;;29.18;28.00;99199.25;5110615;28;20194;-55
2022/04/16 09:19:17;;;;;;;13.73;6.50;;;;;;;29.63;27.48;99196.97;5110613;28;20293;-55
2022/04/16 09:21:44;;;;;;;15.05;5.65;;;;;;;29.71;27.49;99194.25;5110448;28;20372;-53
2022/04/16 09:24:11;;;;;;;10.27;6.47;;;;;;;29.84;27.04;99191.84;5110278;28;20581;-54
2022/04/16 09:26:40;;;;;;;12.27;6.78;;;;;;;29.77;27.28;99181.03;5110018;28;20234;-55
2022/04/16 09:29:08;;;;;;;8.52;6.72;;;;;;;29.02;27.90;99183.25;5110529;28;20195;-54
2022/04/16 09:31:38;;;;;;;12.68;7.13;;;;;;;29.22;27.89;99183.72;5110304;28;20666;-54
2022/04/16 09:34:06;;;;;;;7.20;6.18;;;;;;;29.18;27.84;99177.03;5110400;28;20643;-55
2022/04/16 09:36:39;;;;;;;9.90;6.72;;;;;;;28.73;28.55;99172.25;5110010;28;20202;-54
2022/04/16 09:39:10;;;;;;;10.18;6.53;;;;;;;27.96;29.53;99170.81;5110106;28;20199;-54
2022/04/16 09:41:39;;;;;;;11.75;6.35;;;;;;;28.61;28.39;99168.25;5109981;28;20222;-52
2022/04/16 09:44:18;;;;;;;6.38;5.80;;;;;;;29.20;27.67;99164.34;5110219;28;20615;-52
2022/04/16 09:46:47;;;;;;;9.32;6.32;;;;;;;29.39;27.01;99163.13;5109927;28;20194;-52
2022/04/16 09:49:16;;;;;;;18.73;6.60;;;;;;;30.02;26.22;99164.88;5109803;28;20198;-54
2022/04/16 09:51:45;;;;;;;6.47;5.53;;;;;;;30.18;26.51;99165.59;5109758;28;20197;-54
2022/04/16 09:54:12;;;;;;;8.82;6.60;;;;;;;30.61;25.68;99163.28;5109758;28;20204;-55
2022/04/16 09:56:40;;;;;;;12.05;5.90;;;;;;;30.92;25.17;99158.66;5110050;28;20682;-54
2022/04/16 09:59:09;;;;;;;9.75;5.70;;;;;;;30.95;25.42;99152.91;5110901;28;20191;-54
2022/04/16 10:01:38;;;;;;;8.90;6.18;;;;;;;30.83;25.66;99142.81;5110430;28;20610;-54
2022/04/16 10:04:05;;;;;;;6.75;5.85;;;;;;;30.48;25.67;99154.97;5110742;28;20193;-55
2022/04/16 10:06:34;;;;;;;10.02;5.55;;;;;;;29.92;26.04;99155.19;5109801;28;20194;-54
2022/04/16 10:09:13;;;;;;;6.75;5.70;;;;;;;29.17;26.19;99154.81;5109773;28;20597;-54
2022/04/16 10:14:31;;;;;;;5.25;4.85;;;;;;;28.29;26.23;99139.72;5106165;28;20202;-53
2022/04/16 10:17:12;;;;;;;6.13;5.15;;;;;;;28.28;26.57;99133.53;5109141;28;20482;-53
2022/04/16 10:19:40;;;;;;;5.35;4.72;;;;;;;28.35;26.56;99136.34;5108988;28;20560;-54
2022/04/16 10:22:08;;;;;;;9.75;4.93;;;;;;;27.99;26.70;99133.94;5109882;28;20218;-54
2022/04/16 10:24:35;;;;;;;5.65;4.97;;;;;;;27.80;27.11;99131.59;5109769;28;20209;-53
2022/04/16 10:27:07;;;;;;;7.13;4.72;;;;;;;27.79;27.11;99125.41;5109879;28;20764;-53
2022/04/16 10:29:38;;;;;;;6.45;4.53;;;;;;;27.83;27.64;99123.25;5109888;28;20289;-53
2022/04/16 10:32:16;;;;;;;9.13;5.60;;;;;;;27.68;28.98;99119.56;5110072;28;20211;-54
2022/04/16 10:34:43;;;;;;;7.95;5.75;;;;;;;27.25;29.11;99116.03;5110331;28;20198;-54
2022/04/16 10:37:23;;;;;;;6.65;5.45;;;;;;;26.62;29.51;99126.97;5110182;28;20204;-53
2022/04/16 10:39:53;;;;;;;9.00;5.60;;;;;;;26.59;29.73;99121.97;5110188;28;20190;-53
2022/04/16 10:42:30;;;;;;;5.68;4.90;;;;;;;26.72;29.67;99118.88;5110669;28;20767;-53
2022/04/16 10:45:08;;;;;;;8.30;5.78;;;;;;;26.69;30.04;99116.53;5110741;28;20621;-53
2022/04/16 10:47:38;;;;;;;10.40;6.22;;;;;;;26.49;31.13;99107.91;5110178;28;20194;-53
2022/04/16 10:50:13;;;;;;;9.02;5.97;;;;;;;26.56;31.16;99114.28;5110171;28;20191;-53
2022/04/16 10:52:52;;;;;;;10.18;5.40;;;;;;;26.14;30.80;99111.41;5110099;28;20281;-52
2022/04/16 10:55:20;;;;;;;8.18;5.43;;;;;;;26.30;29.31;99113.38;5110043;28;20205;-53
2022/04/16 10:57:57;;;;;;;6.13;4.78;;;;;;;26.41;28.94;99107.84;5109942;28;20563;-53
2022/04/16 11:00:36;;;;;;;8.90;5.28;;;;;;;26.19;28.72;99109.13;5110521;28;20662;-53
2022/04/16 11:03:10;;;;;;;5.88;5.05;;;;;;;26.08;27.65;99105.84;5110087;28;20218;-53
2022/04/16 11:05:37;;;;;;;4.15;3.85;;;;;;;26.20;25.88;99104.63;5110187;28;20194;-53
2022/04/16 11:08:08;;;;;;;6.43;4.13;;;;;;;26.07;26.53;99107.69;5110081;28;20203;-53
2022/04/16 11:10:35;;;;;;;5.75;4.60;;;;;;;26.10;27.15;99112.69;5109913;28;20198;-54
2022/04/16 11:13:02;;;;;;;8.23;4.65;;;;;;;26.08;27.27;99098.72;5110102;28;20205;-54
2022/04/16 11:15:29;;;;;;;5.57;4.28;;;;;;;26.01;27.13;99090.50;5110063;28;20649;-53
2022/04/16 11:17:57;;;;;;;11.00;4.57;;;;;;;26.12;27.04;99094.75;5110531;28;20195;-54
2022/04/16 11:20:25;;;;;;;6.95;4.25;;;;;;;25.95;27.55;99091.13;5109883;28;20198;-54
2022/04/16 11:22:53;;;;;;;8.25;4.00;;;;;;;26.19;27.67;99084.34;5111244;28;20222;-54
2022/04/16 11:25:24;;;;;;;8.65;4.10;;;;;;;26.29;27.89;99093.13;5113777;28;20206;-54
2022/04/16 11:36:11;;;;;;;8.52;3.88;;;;;;;25.65;28.04;99065.72;5111400;28;20237;-53
2022/04/16 11:38:39;;;;;;;4.35;4.10;;;;;;;25.74;28.30;99077.28;5113294;28;20194;-53
2022/04/16 11:41:10;;;;;;;4.85;4.13;;;;;;;25.60;28.67;99061.84;5113448;28;20198;-54
2022/04/16 11:43:46;;;;;;;5.93;3.67;;;;;;;25.62;27.88;99075.84;5122812;27;20596;-55
2022/04/16 11:46:14;;;;;;;6.15;3.83;;;;;;;25.54;28.69;99067.75;5119275;27;20197;-54
2022/04/16 11:48:45;;;;;;;5.63;4.00;;;;;;;25.54;28.54;99065.06;5124112;27;20657;-53
2022/04/16 11:51:13;;;;;;;3.97;3.58;;;;;;;25.78;27.88;99065.38;5123458;27;20554;-54
2022/04/16 11:53:44;;;;;;;3.92;3.53;;;;;;;25.73;27.67;99040.25;5121926;27;20200;-53